createdAt,value
2018-05-25T00:00:37.841Z,29.00
2018-05-25T00:01:37.866Z,29.40
2018-05-25T00:02:38.088Z,22.30
2018-05-25T00:03:37.900Z,23.70
2018-05-25T00:04:37.914Z,18.50
2018-05-25T00:05:37.928Z,23.30
2018-05-25T00:06:37.916Z,22.10
2018-05-25T00:07:37.952Z,18.30
2018-05-25T00:08:37.946Z,21.70
2018-05-25T00:09:37.957Z,24.30
2018-05-25T00:10:37.982Z,28.60
2018-05-25T00:11:37.988Z,20.10
2018-05-25T00:12:38.021Z,20.20
2018-05-25T00:13:38.008Z,19.10
2018-05-25T00:14:38.027Z,17.80
2018-05-25T00:15:38.045Z,19.50
2018-05-25T00:16:38.072Z,18.70
2018-05-25T00:17:38.072Z,17.00
2018-05-25T00:18:38.079Z,14.80
2018-05-25T00:19:38.112Z,19.40
2018-05-25T00:20:38.099Z,18.20
2018-05-25T00:21:38.117Z,21.20
2018-05-25T00:22:38.230Z,26.90
2018-05-25T00:23:38.147Z,18.30
2018-05-25T00:24:38.152Z,18.20
2018-05-25T00:25:38.173Z,19.90
2018-05-25T00:26:38.179Z,14.10
2018-05-25T00:27:38.352Z,13.60
2018-05-25T00:28:38.200Z,17.00
2018-05-25T00:29:38.219Z,15.10
2018-05-25T00:30:38.235Z,15.80
2018-05-25T00:31:38.246Z,13.70
2018-05-25T00:32:38.367Z,14.10
2018-05-25T00:33:38.273Z,18.30
2018-05-25T00:34:38.285Z,20.80
2018-05-25T00:35:38.324Z,18.10
2018-05-25T00:36:38.311Z,18.00
2018-05-25T00:37:38.438Z,17.30
2018-05-25T00:38:38.343Z,16.10
2018-05-25T00:39:38.367Z,18.50
2018-05-25T00:40:38.390Z,17.10
2018-05-25T00:41:38.390Z,16.90
2018-05-25T00:42:38.540Z,18.70
2018-05-25T00:43:38.431Z,17.40
2018-05-25T00:44:38.426Z,16.60
2018-05-25T00:45:38.456Z,18.80
2018-05-25T00:46:38.468Z,15.60
2018-05-25T00:47:38.488Z,18.40
2018-05-25T00:48:38.569Z,16.70
2018-05-25T00:49:38.489Z,16.70
2018-05-25T00:50:38.508Z,16.90
2018-05-25T00:51:38.544Z,15.70
2018-05-25T00:52:38.529Z,16.20
2018-05-25T00:53:38.651Z,16.10
2018-05-25T00:54:38.552Z,18.40
2018-05-25T00:55:38.561Z,16.10
2018-05-25T00:56:38.589Z,15.70
2018-05-25T00:57:38.590Z,16.20
2018-05-25T00:58:38.705Z,16.40
2018-05-25T00:59:38.641Z,17.40
2018-05-25T01:00:38.631Z,18.60
2018-05-25T01:01:38.641Z,15.50
2018-05-25T01:02:38.681Z,16.30
2018-05-25T01:03:38.833Z,18.60
2018-05-25T01:04:38.696Z,16.20
2018-05-25T01:05:38.697Z,15.20
2018-05-25T01:06:38.716Z,17.60
2018-05-25T01:07:38.717Z,17.50
2018-05-25T01:08:38.886Z,21.00
2018-05-25T01:09:38.747Z,20.70
2018-05-25T01:10:38.765Z,21.20
2018-05-25T01:11:38.774Z,20.20
2018-05-25T01:12:38.789Z,21.70
2018-05-25T01:13:38.976Z,22.70
2018-05-25T01:14:38.817Z,24.00
2018-05-25T01:15:38.828Z,22.00
2018-05-25T01:16:38.868Z,20.40
2018-05-25T01:17:38.854Z,20.90
2018-05-25T01:18:39.020Z,21.50
2018-05-25T01:19:38.884Z,21.30
2018-05-25T01:20:38.892Z,20.20
2018-05-25T01:21:38.939Z,19.10
2018-05-25T01:22:38.932Z,21.70
2018-05-25T01:23:39.083Z,21.20
2018-05-25T01:24:38.950Z,21.30
2018-05-25T01:25:38.967Z,21.70
2018-05-25T01:26:38.985Z,19.80
2018-05-25T01:27:39.055Z,18.10
2018-05-25T01:28:39.123Z,20.30
2018-05-25T01:29:39.037Z,17.30
2018-05-25T01:30:39.031Z,17.40
2018-05-25T01:31:39.049Z,14.40
2018-05-25T01:32:39.079Z,15.70
2018-05-25T01:33:39.242Z,16.10
2018-05-25T01:34:39.108Z,15.80
2018-05-25T01:35:39.117Z,16.80
2018-05-25T01:36:39.107Z,19.70
2018-05-25T01:37:39.120Z,18.50
2018-05-25T01:38:39.245Z,17.40
2018-05-25T01:39:39.143Z,16.80
2018-05-25T01:40:39.168Z,15.80
2018-05-25T01:41:39.172Z,16.00
2018-05-25T01:42:39.193Z,16.70
2018-05-25T01:43:39.374Z,16.50
2018-05-25T01:44:39.227Z,18.00
2018-05-25T01:45:39.229Z,17.70
2018-05-25T01:46:39.268Z,17.50
2018-05-25T01:47:39.251Z,17.60
2018-05-25T01:48:39.415Z,18.40
2018-05-25T01:49:39.286Z,16.70
2018-05-25T01:50:39.297Z,21.30
2018-05-25T01:51:39.309Z,15.50
2018-05-25T01:52:39.326Z,18.70
2018-05-25T01:53:39.342Z,18.20
2018-05-25T01:54:39.494Z,17.10
2018-05-25T01:55:39.357Z,18.70
2018-05-25T01:56:39.371Z,15.80
2018-05-25T01:57:39.384Z,17.00
2018-05-25T01:58:39.424Z,19.70
2018-05-25T01:59:39.412Z,18.70
2018-05-25T02:00:39.545Z,24.00
2018-05-25T02:01:39.455Z,27.10
2018-05-25T02:02:39.454Z,21.40
2018-05-25T02:03:39.494Z,22.70
2018-05-25T02:04:39.492Z,18.80
2018-05-25T02:05:39.596Z,22.30
2018-05-25T02:06:39.533Z,20.00
2018-05-25T02:07:39.529Z,24.40
2018-05-25T02:08:39.536Z,21.40
2018-05-25T02:09:39.549Z,23.40
2018-05-25T02:10:39.657Z,24.40
2018-05-25T02:11:39.583Z,23.00
2018-05-25T02:12:39.584Z,24.00
2018-05-25T02:13:39.604Z,24.80
2018-05-25T02:14:39.620Z,23.40
2018-05-25T02:15:39.751Z,22.80
2018-05-25T02:16:39.667Z,22.20
2018-05-25T02:17:39.682Z,21.40
2018-05-25T02:18:39.699Z,21.80
2018-05-25T02:19:39.694Z,27.00
2018-05-25T02:20:39.800Z,21.80
2018-05-25T02:21:39.735Z,21.70
2018-05-25T02:22:39.745Z,23.10
2018-05-25T02:23:39.736Z,22.80
2018-05-25T02:24:39.745Z,22.90
2018-05-25T02:25:39.924Z,25.80
2018-05-25T02:26:39.775Z,24.40
2018-05-25T02:27:39.794Z,27.00
2018-05-25T02:28:39.799Z,25.30
2018-05-25T02:29:39.841Z,25.60
2018-05-25T02:30:39.976Z,26.00
2018-05-25T02:31:39.850Z,33.00
2018-05-25T02:32:39.883Z,27.30
2018-05-25T02:33:39.893Z,30.90
2018-05-25T02:34:39.883Z,34.80
2018-05-25T02:35:40.001Z,28.10
2018-05-25T02:36:39.918Z,28.40
2018-05-25T02:37:39.920Z,27.10
2018-05-25T02:38:39.951Z,24.70
2018-05-25T02:39:39.970Z,22.70
2018-05-25T02:40:40.062Z,23.00
2018-05-25T02:41:39.992Z,19.20
2018-05-25T02:42:39.998Z,19.90
2018-05-25T02:43:40.006Z,21.00
2018-05-25T02:44:40.012Z,23.10
2018-05-25T02:45:40.201Z,32.60
2018-05-25T02:46:40.039Z,29.30
2018-05-25T02:47:40.078Z,35.70
2018-05-25T02:48:40.093Z,20.50
2018-05-25T02:49:40.083Z,22.20
2018-05-25T02:50:40.225Z,20.60
2018-05-25T02:51:40.117Z,20.60
2018-05-25T02:52:40.119Z,18.00
2018-05-25T02:53:40.164Z,17.70
2018-05-25T02:54:40.175Z,20.50
2018-05-25T02:55:40.344Z,18.60
2018-05-25T02:56:40.179Z,17.70
2018-05-25T02:57:40.185Z,19.60
2018-05-25T02:58:40.223Z,18.00
2018-05-25T02:59:40.211Z,17.10
2018-05-25T03:00:40.377Z,18.10
2018-05-25T03:01:40.263Z,14.90
2018-05-25T03:02:40.269Z,15.40
2018-05-25T03:03:40.266Z,17.10
2018-05-25T03:04:40.279Z,16.60
2018-05-25T03:05:40.469Z,16.00
2018-05-25T03:06:40.302Z,15.70
2018-05-25T03:07:40.343Z,18.00
2018-05-25T03:08:40.362Z,20.20
2018-05-25T03:09:40.358Z,20.00
2018-05-25T03:10:40.385Z,25.80
2018-05-25T03:11:40.476Z,22.10
2018-05-25T03:12:40.414Z,22.50
2018-05-25T03:13:40.398Z,24.40
2018-05-25T03:14:40.438Z,23.00
2018-05-25T03:15:40.448Z,22.40
2018-05-25T03:16:40.566Z,21.60
2018-05-25T03:17:40.451Z,18.60
2018-05-25T03:18:40.460Z,25.90
2018-05-25T03:19:40.505Z,23.00
2018-05-25T03:20:40.512Z,22.90
2018-05-25T03:21:40.657Z,21.80
2018-05-25T03:22:40.513Z,22.80
2018-05-25T03:23:40.554Z,20.50
2018-05-25T03:24:40.567Z,23.90
2018-05-25T03:25:40.550Z,20.90
2018-05-25T03:26:40.695Z,23.90
2018-05-25T03:27:40.576Z,20.50
2018-05-25T03:28:40.592Z,23.00
2018-05-25T03:29:40.607Z,21.20
2018-05-25T03:30:40.619Z,22.60
2018-05-25T03:31:40.783Z,23.20
2018-05-25T03:32:40.640Z,21.50
2018-05-25T03:33:40.690Z,24.40
2018-05-25T03:34:40.675Z,21.40
2018-05-25T03:35:40.679Z,21.20
2018-05-25T03:36:40.848Z,25.40
2018-05-25T03:37:40.736Z,25.90
2018-05-25T03:38:40.728Z,21.90
2018-05-25T03:39:40.734Z,24.30
2018-05-25T03:40:40.757Z,21.40
2018-05-25T03:41:40.935Z,20.20
2018-05-25T03:42:40.799Z,21.50
2018-05-25T03:43:40.786Z,26.60
2018-05-25T03:44:40.825Z,28.00
2018-05-25T03:45:40.836Z,21.80
2018-05-25T03:46:40.953Z,22.30
2018-05-25T03:47:40.849Z,20.60
2018-05-25T03:48:40.856Z,23.00
2018-05-25T03:49:40.860Z,23.50
2018-05-25T03:50:40.903Z,18.20
2018-05-25T03:51:41.044Z,19.70
2018-05-25T03:52:40.902Z,20.70
2018-05-25T03:53:40.944Z,20.00
2018-05-25T03:54:40.930Z,19.70
2018-05-25T03:55:40.936Z,18.60
2018-05-25T03:56:41.095Z,21.70
2018-05-25T03:57:40.972Z,23.60
2018-05-25T03:58:40.980Z,34.40
2018-05-25T03:59:40.988Z,23.60
2018-05-25T04:00:41.040Z,24.40
2018-05-25T04:01:41.139Z,21.30
2018-05-25T04:02:41.029Z,22.10
2018-05-25T04:03:41.039Z,22.10
2018-05-25T04:04:41.075Z,20.80
2018-05-25T04:05:41.099Z,18.00
2018-05-25T04:06:41.208Z,22.90
2018-05-25T04:07:41.099Z,18.80
2018-05-25T04:08:41.100Z,18.70
2018-05-25T04:09:41.122Z,26.20
2018-05-25T04:10:41.124Z,20.10
2018-05-25T04:11:41.294Z,20.10
2018-05-25T04:12:41.184Z,22.40
2018-05-25T04:13:41.183Z,20.20
2018-05-25T04:14:41.184Z,22.10
2018-05-25T04:15:41.195Z,22.70
2018-05-25T04:16:41.355Z,20.60
2018-05-25T04:17:41.233Z,18.90
2018-05-25T04:18:41.230Z,23.50
2018-05-25T04:19:41.246Z,21.20
2018-05-25T04:20:41.262Z,20.60
2018-05-25T04:21:41.448Z,17.60
2018-05-25T04:22:41.294Z,20.50
2018-05-25T04:23:41.292Z,22.10
2018-05-25T04:24:41.318Z,22.30
2018-05-25T04:25:41.319Z,22.00
2018-05-25T04:26:41.342Z,24.70
2018-05-25T04:27:41.525Z,28.00
2018-05-25T04:28:41.360Z,26.60
2018-05-25T04:29:41.400Z,24.40
2018-05-25T04:30:41.411Z,25.00
2018-05-25T04:31:41.394Z,23.90
2018-05-25T04:32:41.588Z,23.40
2018-05-25T04:33:41.455Z,25.20
2018-05-25T04:34:41.438Z,26.80
2018-05-25T04:35:41.531Z,22.30
2018-05-25T04:36:41.453Z,28.40
2018-05-25T04:37:41.626Z,33.90
2018-05-25T04:38:41.481Z,24.00
2018-05-25T04:39:41.530Z,25.50
2018-05-25T04:40:41.523Z,24.80
2018-05-25T04:41:41.524Z,21.70
2018-05-25T04:42:41.649Z,21.90
2018-05-25T04:43:41.553Z,24.80
2018-05-25T04:44:41.579Z,20.70
2018-05-25T04:45:41.600Z,19.40
2018-05-25T04:46:41.617Z,20.70
2018-05-25T04:47:41.780Z,23.10
2018-05-25T04:48:41.617Z,24.50
2018-05-25T04:49:41.627Z,21.30
2018-05-25T04:50:41.668Z,23.00
2018-05-25T04:51:41.657Z,21.80
2018-05-25T04:52:41.812Z,19.80
2018-05-25T04:53:41.706Z,22.10
2018-05-25T04:54:41.693Z,20.10
2018-05-25T04:55:41.700Z,27.10
2018-05-25T04:56:41.727Z,20.50
2018-05-25T04:57:41.852Z,22.70
2018-05-25T04:58:41.767Z,22.00
2018-05-25T04:59:41.783Z,24.40
2018-05-25T05:00:41.765Z,23.20
2018-05-25T05:01:41.810Z,24.50
2018-05-25T05:02:41.921Z,24.70
2018-05-25T05:03:41.807Z,22.80
2018-05-25T05:04:41.850Z,23.90
2018-05-25T05:05:41.833Z,21.70
2018-05-25T05:06:41.851Z,21.40
2018-05-25T05:07:41.971Z,24.00
2018-05-25T05:08:41.875Z,22.60
2018-05-25T05:09:41.906Z,23.10
2018-05-25T05:10:41.894Z,20.90
2018-05-25T05:11:41.909Z,24.80
2018-05-25T05:12:42.097Z,22.40
2018-05-25T05:13:41.940Z,22.30
2018-05-25T05:14:41.947Z,22.20
2018-05-25T05:15:41.988Z,23.40
2018-05-25T05:16:41.997Z,24.80
2018-05-25T05:17:42.135Z,21.40
2018-05-25T05:18:42.001Z,22.90
2018-05-25T05:19:42.013Z,21.90
2018-05-25T05:20:42.021Z,26.20
2018-05-25T05:21:42.060Z,22.30
2018-05-25T05:22:42.227Z,27.70
2018-05-25T05:23:42.063Z,27.20
2018-05-25T05:24:42.079Z,23.50
2018-05-25T05:25:42.100Z,23.60
2018-05-25T05:26:42.103Z,24.80
2018-05-25T05:27:42.218Z,23.80
2018-05-25T05:28:42.142Z,23.20
2018-05-25T05:29:42.168Z,23.10
2018-05-25T05:30:42.182Z,21.10
2018-05-25T05:31:42.164Z,25.90
2018-05-25T05:32:42.295Z,26.70
2018-05-25T05:33:42.201Z,23.10
2018-05-25T05:34:42.212Z,25.30
2018-05-25T05:35:42.232Z,30.60
2018-05-25T05:36:42.246Z,22.30
2018-05-25T05:37:42.368Z,23.70
2018-05-25T05:38:42.272Z,23.80
2018-05-25T05:39:42.265Z,25.10
2018-05-25T05:40:42.283Z,23.90
2018-05-25T05:41:42.297Z,23.50
2018-05-25T05:42:42.433Z,30.60
2018-05-25T05:43:42.326Z,33.10
2018-05-25T05:44:42.362Z,27.30
2018-05-25T05:45:42.341Z,18.40
2018-05-25T05:46:42.369Z,16.80
2018-05-25T05:47:42.384Z,20.30
2018-05-25T05:48:42.542Z,24.50
2018-05-25T05:49:42.400Z,24.60
2018-05-25T05:50:42.417Z,32.70
2018-05-25T05:51:42.427Z,30.90
2018-05-25T05:52:42.491Z,24.90
2018-05-25T05:53:42.546Z,16.10
2018-05-25T05:54:42.463Z,17.80
2018-05-25T05:55:42.475Z,14.70
2018-05-25T05:56:42.513Z,18.90
2018-05-25T05:57:42.505Z,24.80
2018-05-25T05:58:42.618Z,21.40
2018-05-25T05:59:42.527Z,20.20
2018-05-25T06:00:42.560Z,22.90
2018-05-25T06:01:42.575Z,22.60
2018-05-25T06:02:42.594Z,26.30
2018-05-25T06:03:42.703Z,19.20
2018-05-25T06:04:42.591Z,16.20
2018-05-25T06:05:42.600Z,20.60
2018-05-25T06:06:42.611Z,16.50
2018-05-25T06:07:42.653Z,16.90
2018-05-25T06:08:42.761Z,16.50
2018-05-25T06:09:42.648Z,30.60
2018-05-25T06:10:42.665Z,20.90
2018-05-25T06:11:42.699Z,18.90
2018-05-25T06:12:42.715Z,28.40
2018-05-25T06:13:42.802Z,25.00
2018-05-25T06:14:42.717Z,23.30
2018-05-25T06:15:42.752Z,28.20
2018-05-25T06:16:42.740Z,20.40
2018-05-25T06:17:42.752Z,21.70
2018-05-25T06:18:42.865Z,24.00
2018-05-25T06:19:42.774Z,27.50
2018-05-25T06:20:42.819Z,31.20
2018-05-25T06:21:42.796Z,25.20
2018-05-25T06:22:42.841Z,25.80
2018-05-25T06:23:43.021Z,20.10
2018-05-25T06:24:42.851Z,26.40
2018-05-25T06:25:42.880Z,20.50
2018-05-25T06:26:42.888Z,23.40
2018-05-25T06:27:42.877Z,18.90
2018-05-25T06:28:43.064Z,19.30
2018-05-25T06:29:42.911Z,19.70
2018-05-25T06:30:42.945Z,19.50
2018-05-25T06:31:42.932Z,18.00
2018-05-25T06:32:42.971Z,15.60
2018-05-25T06:33:43.101Z,15.30
2018-05-25T06:34:43.007Z,19.90
2018-05-25T06:35:42.986Z,15.40
2018-05-25T06:36:43.017Z,15.30
2018-05-25T06:37:43.005Z,25.40
2018-05-25T06:38:43.167Z,27.30
2018-05-25T06:39:43.042Z,25.00
2018-05-25T06:40:43.040Z,19.40
2018-05-25T06:41:43.054Z,27.00
2018-05-25T06:42:43.072Z,33.90
2018-05-25T06:43:43.226Z,22.20
2018-05-25T06:44:43.093Z,21.50
2018-05-25T06:45:43.135Z,17.90
2018-05-25T06:46:43.123Z,41.70
2018-05-25T06:47:43.127Z,18.30
2018-05-25T06:48:43.308Z,13.40
2018-05-25T06:49:43.178Z,15.90
2018-05-25T06:50:43.171Z,16.50
2018-05-25T06:51:43.177Z,14.60
2018-05-25T06:52:43.192Z,17.30
2018-05-25T06:53:43.329Z,15.60
2018-05-25T06:54:43.289Z,16.80
2018-05-25T06:55:43.297Z,15.50
2018-05-25T06:56:43.314Z,15.40
2018-05-25T06:57:43.338Z,17.10
2018-05-25T06:58:43.480Z,17.90
2018-05-25T06:59:43.381Z,13.50
2018-05-25T07:00:43.361Z,27.80
2018-05-25T07:01:43.375Z,24.90
2018-05-25T07:02:43.320Z,27.50
2018-05-25T07:03:43.370Z,17.40
2018-05-25T07:04:43.444Z,22.00
2018-05-25T07:05:43.382Z,17.70
2018-05-25T07:06:43.371Z,22.30
2018-05-25T07:07:43.382Z,20.70
2018-05-25T07:08:43.404Z,22.30
2018-05-25T07:09:43.558Z,17.30
2018-05-25T07:10:43.420Z,13.80
2018-05-25T07:11:43.430Z,12.40
2018-05-25T07:12:43.448Z,17.90
2018-05-25T07:13:43.463Z,21.60
2018-05-25T07:14:43.578Z,21.80
2018-05-25T07:15:43.513Z,19.10
2018-05-25T07:16:43.497Z,16.10
2018-05-25T07:17:43.510Z,18.80
2018-05-25T07:18:43.545Z,32.00
2018-05-25T07:19:43.632Z,22.10
2018-05-25T07:20:43.544Z,20.90
2018-05-25T07:21:43.560Z,39.10
2018-05-25T07:22:43.596Z,24.80
2018-05-25T07:23:43.613Z,32.20
2018-05-25T07:24:43.774Z,25.50
2018-05-25T07:25:43.631Z,25.20
2018-05-25T07:26:43.635Z,23.90
2018-05-25T07:27:43.650Z,32.40
2018-05-25T07:28:43.678Z,35.70
2018-05-25T07:29:43.808Z,26.70
2018-05-25T07:30:43.697Z,19.40
2018-05-25T07:31:43.689Z,23.50
2018-05-25T07:32:43.700Z,25.60
2018-05-25T07:33:43.737Z,24.60
2018-05-25T07:34:43.848Z,17.70
2018-05-25T07:35:43.761Z,17.50
2018-05-25T07:36:43.754Z,16.90
2018-05-25T07:37:43.760Z,23.00
2018-05-25T07:38:43.772Z,23.70
2018-05-25T07:39:43.883Z,26.00
2018-05-25T07:40:43.825Z,28.60
2018-05-25T07:41:43.832Z,29.80
2018-05-25T07:42:43.820Z,29.40
2018-05-25T07:43:43.828Z,33.50
2018-05-25T07:44:43.959Z,39.90
2018-05-25T07:45:43.859Z,32.10
2018-05-25T07:46:43.878Z,39.80
2018-05-25T07:47:43.884Z,30.30
2018-05-25T07:48:43.925Z,28.70
2018-05-25T07:49:44.012Z,30.60
2018-05-25T07:50:43.947Z,30.80
2018-05-25T07:51:43.966Z,30.90
2018-05-25T07:52:43.946Z,31.10
2018-05-25T07:53:43.959Z,28.20
2018-05-25T07:54:44.097Z,37.00
2018-05-25T07:55:43.987Z,36.40
2018-05-25T07:56:44.026Z,44.50
2018-05-25T07:57:44.012Z,33.90
2018-05-25T07:58:44.032Z,31.70
2018-05-25T07:59:44.139Z,25.50
2018-05-25T08:00:44.079Z,24.80
2018-05-25T08:01:44.063Z,33.30
2018-05-25T08:02:44.080Z,25.20
2018-05-25T08:03:44.083Z,22.00
2018-05-25T08:04:44.281Z,24.40
2018-05-25T08:05:44.137Z,34.60
2018-05-25T08:06:44.121Z,29.30
2018-05-25T08:07:44.146Z,18.50
2018-05-25T08:08:44.140Z,18.10
2018-05-25T08:09:44.279Z,23.50
2018-05-25T08:10:44.213Z,27.40
2018-05-25T08:11:44.183Z,25.40
2018-05-25T08:12:44.211Z,26.10
2018-05-25T08:13:44.210Z,22.20
2018-05-25T08:14:44.385Z,18.10
2018-05-25T08:15:44.263Z,18.20
2018-05-25T08:16:44.274Z,15.70
2018-05-25T08:17:44.261Z,36.10
2018-05-25T08:18:44.273Z,57.70
2018-05-25T08:19:44.297Z,51.70
2018-05-25T08:20:44.475Z,39.00
2018-05-25T08:21:44.419Z,39.90
2018-05-25T08:22:44.338Z,56.10
2018-05-25T08:23:44.369Z,46.80
2018-05-25T08:24:44.350Z,40.80
2018-05-25T08:25:44.465Z,40.90
2018-05-25T08:26:44.382Z,40.70
2018-05-25T08:27:44.401Z,25.50
2018-05-25T08:28:44.397Z,29.00
2018-05-25T08:29:44.419Z,26.10
2018-05-25T08:30:44.588Z,25.70
2018-05-25T08:31:44.438Z,25.20
2018-05-25T08:32:44.453Z,23.70
2018-05-25T08:33:44.490Z,23.90
2018-05-25T08:34:44.476Z,24.00
2018-05-25T08:35:44.596Z,27.70
2018-05-25T08:36:44.514Z,28.90
2018-05-25T08:37:44.515Z,28.40
2018-05-25T08:38:44.524Z,26.00
2018-05-25T08:39:44.546Z,27.50
2018-05-25T08:40:44.703Z,27.50
2018-05-25T08:41:44.567Z,30.70
2018-05-25T08:42:44.576Z,26.90
2018-05-25T08:43:44.619Z,29.60
2018-05-25T08:44:44.598Z,30.50
2018-05-25T08:45:44.718Z,31.90
2018-05-25T08:46:44.638Z,28.10
2018-05-25T08:47:44.646Z,27.40
2018-05-25T08:48:44.679Z,33.10
2018-05-25T08:49:44.663Z,30.50
2018-05-25T08:50:44.791Z,28.00
2018-05-25T08:51:44.717Z,32.00
2018-05-25T08:52:44.702Z,32.90
2018-05-25T08:53:44.743Z,31.10
2018-05-25T08:54:44.742Z,30.50
2018-05-25T08:55:44.837Z,29.30
2018-05-25T08:56:44.754Z,27.70
2018-05-25T08:57:44.779Z,26.60
2018-05-25T08:58:44.779Z,26.50
2018-05-25T08:59:44.815Z,27.70
2018-05-25T09:00:44.964Z,26.60
2018-05-25T09:01:44.847Z,32.70
2018-05-25T09:02:44.843Z,23.90
2018-05-25T09:03:44.858Z,26.10
2018-05-25T09:04:44.862Z,23.70
2018-05-25T09:05:45.039Z,25.70
2018-05-25T09:06:44.923Z,25.70
2018-05-25T09:07:44.891Z,25.40
2018-05-25T09:08:44.906Z,25.70
2018-05-25T09:09:44.931Z,26.20
2018-05-25T09:10:45.102Z,27.60
2018-05-25T09:11:44.940Z,27.40
2018-05-25T09:12:44.958Z,29.00
2018-05-25T09:13:44.965Z,32.50
2018-05-25T09:14:45.006Z,31.70
2018-05-25T09:15:45.137Z,31.80
2018-05-25T09:16:45.003Z,33.10
2018-05-25T09:17:45.014Z,34.00
2018-05-25T09:18:45.051Z,33.80
2018-05-25T09:19:45.064Z,34.90
2018-05-25T09:20:45.201Z,35.30
2018-05-25T09:21:45.210Z,31.90
2018-05-25T09:22:45.092Z,31.60
2018-05-25T09:23:45.115Z,33.90
2018-05-25T09:24:45.125Z,33.10
2018-05-25T09:25:45.224Z,32.50
2018-05-25T09:26:45.136Z,36.20
2018-05-25T09:27:45.137Z,30.90
2018-05-25T09:28:45.175Z,37.70
2018-05-25T09:29:45.177Z,33.60
2018-05-25T09:30:45.322Z,33.70
2018-05-25T09:31:45.193Z,34.50
2018-05-25T09:32:45.210Z,31.00
2018-05-25T09:33:45.210Z,37.10
2018-05-25T09:34:45.223Z,30.70
2018-05-25T09:35:45.234Z,27.70
2018-05-25T09:36:45.432Z,27.60
2018-05-25T09:37:45.274Z,28.20
2018-05-25T09:38:45.275Z,30.30
2018-05-25T09:39:45.281Z,30.10
2018-05-25T09:40:45.300Z,32.30
2018-05-25T09:41:45.436Z,36.90
2018-05-25T09:42:45.352Z,33.80
2018-05-25T09:43:45.348Z,40.40
2018-05-25T09:44:45.351Z,41.70
2018-05-25T09:45:45.385Z,49.10
2018-05-25T09:46:45.480Z,62.30
2018-05-25T09:47:45.387Z,61.10
2018-05-25T09:48:45.407Z,53.70
2018-05-25T09:49:45.411Z,53.40
2018-05-25T09:50:45.424Z,42.30
2018-05-25T09:51:45.532Z,51.90
2018-05-25T09:52:45.450Z,48.70
2018-05-25T09:53:45.461Z,43.90
2018-05-25T09:54:45.504Z,48.90
2018-05-25T09:55:45.511Z,47.90
2018-05-25T09:56:45.646Z,43.20
2018-05-25T09:57:45.512Z,46.10
2018-05-25T09:58:45.551Z,43.00
2018-05-25T09:59:45.549Z,44.30
2018-05-25T10:00:45.572Z,47.70
2018-05-25T10:01:45.662Z,44.30
2018-05-25T10:02:45.597Z,39.30
2018-05-25T10:03:45.608Z,40.50
2018-05-25T10:04:45.598Z,40.90
2018-05-25T10:05:45.613Z,39.90
2018-05-25T10:06:45.726Z,37.50
2018-05-25T10:07:45.650Z,40.20
2018-05-25T10:08:45.651Z,36.80
2018-05-25T10:09:45.662Z,41.40
2018-05-25T10:10:45.673Z,34.60
2018-05-25T10:11:45.852Z,38.20
2018-05-25T10:12:45.706Z,33.10
2018-05-25T10:13:45.738Z,37.80
2018-05-25T10:14:45.750Z,33.60
2018-05-25T10:15:45.736Z,33.70
2018-05-25T10:16:45.899Z,33.40
2018-05-25T10:17:45.762Z,36.70
2018-05-25T10:18:45.801Z,32.50
2018-05-25T10:19:45.817Z,33.60
2018-05-25T10:20:45.825Z,36.80
2018-05-25T10:21:45.994Z,33.80
2018-05-25T10:22:45.830Z,37.30
2018-05-25T10:23:45.839Z,39.00
2018-05-25T10:24:45.860Z,38.00
2018-05-25T10:25:45.896Z,36.50
2018-05-25T10:26:46.028Z,37.90
2018-05-25T10:27:45.895Z,45.30
2018-05-25T10:28:45.939Z,38.70
2018-05-25T10:29:45.920Z,48.20
2018-05-25T10:30:45.958Z,46.80
2018-05-25T10:31:46.096Z,53.60
2018-05-25T10:32:45.956Z,54.90
2018-05-25T10:33:45.982Z,44.50
2018-05-25T10:34:45.984Z,42.70
2018-05-25T10:35:46.024Z,36.80
2018-05-25T10:36:46.136Z,36.80
2018-05-25T10:37:46.023Z,37.50
2018-05-25T10:38:46.050Z,39.10
2018-05-25T10:39:46.047Z,36.50
2018-05-25T10:40:46.085Z,44.80
2018-05-25T10:41:46.251Z,37.00
2018-05-25T10:42:46.087Z,36.50
2018-05-25T10:43:46.093Z,44.50
2018-05-25T10:44:46.113Z,34.70
2018-05-25T10:45:46.153Z,39.90
2018-05-25T10:46:46.286Z,38.80
2018-05-25T10:47:46.153Z,32.10
2018-05-25T10:48:46.163Z,33.80
2018-05-25T10:49:46.202Z,33.40
2018-05-25T10:50:46.198Z,35.30
2018-05-25T10:51:46.206Z,34.40
2018-05-25T10:52:46.319Z,33.50
2018-05-25T10:53:46.258Z,34.40
2018-05-25T10:54:46.259Z,31.80
2018-05-25T10:55:46.256Z,30.00
2018-05-25T10:56:46.282Z,30.90
2018-05-25T10:57:46.425Z,28.50
2018-05-25T10:58:46.327Z,27.30
2018-05-25T10:59:46.343Z,28.00
2018-05-25T11:00:46.329Z,29.20
2018-05-25T11:01:46.337Z,28.30
2018-05-25T11:02:46.456Z,28.20
2018-05-25T11:03:46.376Z,33.20
2018-05-25T11:04:46.379Z,28.80
2018-05-25T11:05:46.398Z,28.90
2018-05-25T11:06:46.404Z,29.80
2018-05-25T11:07:46.574Z,30.30
2018-05-25T11:08:46.440Z,28.10
2018-05-25T11:09:46.479Z,28.20
2018-05-25T11:10:46.495Z,30.50
2018-05-25T11:11:46.478Z,29.80
2018-05-25T11:12:46.667Z,30.20
2018-05-25T11:13:46.536Z,27.40
2018-05-25T11:14:46.548Z,30.80
2018-05-25T11:15:46.552Z,30.40
2018-05-25T11:16:46.553Z,27.00
2018-05-25T11:17:46.744Z,31.70
2018-05-25T11:18:46.596Z,33.10
2018-05-25T11:19:46.598Z,31.30
2018-05-25T11:20:46.621Z,34.50
2018-05-25T11:21:46.626Z,33.30
2018-05-25T11:22:46.739Z,37.00
2018-05-25T11:23:46.656Z,31.90
2018-05-25T11:24:46.700Z,37.70
2018-05-25T11:25:46.710Z,25.50
2018-05-25T11:26:46.701Z,25.00
2018-05-25T11:27:46.817Z,20.20
2018-05-25T11:28:46.731Z,25.20
2018-05-25T11:29:46.759Z,20.90
2018-05-25T11:30:46.766Z,23.50
2018-05-25T11:31:46.779Z,21.10
2018-05-25T11:32:46.893Z,22.50
2018-05-25T11:33:46.814Z,25.90
2018-05-25T11:34:46.849Z,23.80
2018-05-25T11:35:46.865Z,26.40
2018-05-25T11:36:46.927Z,24.00
2018-05-25T11:37:47.096Z,23.80
2018-05-25T11:38:46.963Z,25.10
2018-05-25T11:39:46.987Z,23.30
2018-05-25T11:40:47.018Z,23.10
2018-05-25T11:41:47.004Z,25.10
2018-05-25T11:42:47.075Z,24.70
2018-05-25T11:43:46.989Z,27.40
2018-05-25T11:44:46.975Z,26.10
2018-05-25T11:45:46.992Z,27.80
2018-05-25T11:46:47.007Z,28.20
2018-05-25T11:47:47.121Z,25.40
2018-05-25T11:48:47.040Z,28.20
2018-05-25T11:49:47.059Z,30.30
2018-05-25T11:50:47.096Z,29.80
2018-05-25T11:51:47.103Z,25.80
2018-05-25T11:52:47.251Z,28.50
2018-05-25T11:53:47.142Z,26.80
2018-05-25T11:54:47.132Z,30.50
2018-05-25T11:55:47.170Z,26.70
2018-05-25T11:56:47.189Z,22.50
2018-05-25T11:57:47.175Z,23.10
2018-05-25T11:58:47.302Z,25.00
2018-05-25T11:59:47.212Z,22.70
2018-05-25T12:00:47.226Z,18.70
2018-05-25T12:01:47.361Z,22.00
2018-05-25T12:02:47.273Z,21.80
2018-05-25T12:03:47.376Z,22.60
2018-05-25T12:04:47.291Z,25.50
2018-05-25T12:05:47.334Z,25.10
2018-05-25T12:06:47.338Z,20.20
2018-05-25T12:07:47.341Z,22.00
2018-05-25T12:08:47.487Z,22.00
2018-05-25T12:09:47.388Z,22.50
2018-05-25T12:10:47.405Z,22.60
2018-05-25T12:11:47.414Z,22.80
2018-05-25T12:12:47.427Z,24.90
2018-05-25T12:13:47.593Z,21.40
2018-05-25T12:14:47.469Z,21.70
2018-05-25T12:15:47.491Z,23.30
2018-05-25T12:16:47.514Z,23.80
2018-05-25T12:17:47.519Z,26.00
2018-05-25T12:18:47.687Z,28.50
2018-05-25T12:19:47.565Z,23.20
2018-05-25T12:20:47.556Z,25.10
2018-05-25T12:21:47.577Z,29.20
2018-05-25T12:22:47.595Z,23.00
2018-05-25T12:23:47.749Z,25.10
2018-05-25T12:24:47.631Z,29.50
2018-05-25T12:25:47.643Z,25.30
2018-05-25T12:26:47.654Z,24.60
2018-05-25T12:27:47.689Z,26.20
2018-05-25T12:28:47.832Z,26.10
2018-05-25T12:29:47.692Z,29.60
2018-05-25T12:30:47.715Z,23.50
2018-05-25T12:31:47.753Z,27.40
2018-05-25T12:32:47.747Z,29.90
2018-05-25T12:33:47.908Z,29.10
2018-05-25T12:34:47.776Z,27.80
2018-05-25T12:35:47.790Z,27.50
2018-05-25T12:36:47.814Z,28.00
2018-05-25T12:37:47.827Z,32.40
2018-05-25T12:38:47.970Z,27.00
2018-05-25T12:39:47.891Z,25.60
2018-05-25T12:40:47.908Z,25.60
2018-05-25T12:41:47.894Z,25.80
2018-05-25T12:42:47.934Z,23.70
2018-05-25T12:43:48.086Z,25.70
2018-05-25T12:44:47.943Z,23.10
2018-05-25T12:45:47.990Z,24.00
2018-05-25T12:46:48.002Z,23.50
2018-05-25T12:47:48.017Z,23.60
2018-05-25T12:48:48.156Z,24.60
2018-05-25T12:49:48.022Z,26.70
2018-05-25T12:50:48.053Z,28.00
2018-05-25T12:51:48.083Z,22.90
2018-05-25T12:52:48.095Z,24.90